CheckWX is a tool to help pilots better visualize weather data.  It is not intended as a substitute for an official pre-flight weather briefing.

03:17:44 UTC

EHSC METAR
Goeree Le Sea
Goeree Le Sea, The Netherlands
Current

23 mins ago

EHSC 270255Z AUTO 29013KT 9999 ///////// 13/09 Q1009 W13/H10
Observed
May-27 @ 02:55 UTC
Wind
  • 290° at 13 KTS
Visibility
10,000+ meters
Temperature
13°C / 55°F
Dewpoint
C / 48°F
Humidity
77%
Altimeter
29.79" Hg
Pressure
1008.92 hPa
Previous

53 mins ago

EHSC 270225Z AUTO 29012KT 9999 ///////// 13/10 Q1009 W13/H10
Observed
May-27 @ 02:25 UTC
Wind
  • 290° at 12 KTS
Visibility
10,000+ meters
Temperature
13°C / 55°F
Dewpoint
10°C / 50°F
Humidity
82%
Altimeter
29.79" Hg
Pressure
1008.92 hPa
Previous

1 hour ago

EHSC 270155Z AUTO 28011KT 9999 ///////// 14/10 Q1009 W13/H10
Observed
May-27 @ 01:55 UTC
Wind
  • 280° at 11 KTS
Visibility
10,000+ meters
Temperature
14°C / 57°F
Dewpoint
10°C / 50°F
Humidity
77%
Altimeter
29.79" Hg
Pressure
1008.92 hPa